createdAt,value
2019-05-21T00:01:40.410Z,10.72
2019-05-21T00:04:10.778Z,10.77
2019-05-21T00:06:41.084Z,10.72
2019-05-21T00:09:11.383Z,10.68
2019-05-21T00:11:41.703Z,10.69
2019-05-21T00:14:12.007Z,10.77
2019-05-21T00:16:42.374Z,10.73
2019-05-21T00:19:12.692Z,10.64
2019-05-21T00:21:43.024Z,10.67
2019-05-21T00:24:13.252Z,10.64
2019-05-21T00:26:43.492Z,10.58
2019-05-21T00:29:49.587Z,10.60
2019-05-21T00:32:55.834Z,10.59
2019-05-21T00:36:02.171Z,10.63
2019-05-21T00:39:08.521Z,10.64
2019-05-21T00:42:03.979Z,10.65
2019-05-21T00:44:37.343Z,10.67
2019-05-21T00:47:09.694Z,10.70
2019-05-21T00:49:41.275Z,10.63
2019-05-21T00:52:11.821Z,10.64
2019-05-21T00:54:42.096Z,10.64
2019-05-21T00:57:12.564Z,10.70
2019-05-21T00:59:42.856Z,10.68
2019-05-21T01:02:13.178Z,10.67
2019-05-21T01:04:59.524Z,10.64
2019-05-21T01:07:17.796Z,10.65
2019-05-21T01:09:48.083Z,10.68
2019-05-21T01:12:18.387Z,10.70
2019-05-21T01:14:51.735Z,10.67
2019-05-21T01:17:22.007Z,10.65
2019-05-21T01:19:52.281Z,10.67
2019-05-21T01:22:22.510Z,10.70
2019-05-21T01:24:52.867Z,10.74
2019-05-21T01:27:23.190Z,10.74
2019-05-21T01:29:53.387Z,10.74
2019-05-21T01:32:23.598Z,10.75
2019-05-21T01:34:53.805Z,10.77
2019-05-21T01:37:24.127Z,10.76
2019-05-21T01:39:54.349Z,10.72
2019-05-21T01:42:24.677Z,10.74
2019-05-21T01:44:54.875Z,10.72
2019-05-21T01:47:25.138Z,10.75
2019-05-21T01:49:56.514Z,10.78
2019-05-21T01:52:26.821Z,10.77
2019-05-21T01:54:57.075Z,10.75
2019-05-21T01:57:27.333Z,10.79
2019-05-21T01:59:57.683Z,10.76
2019-05-21T02:02:27.995Z,10.74
2019-05-21T02:04:58.280Z,10.74
2019-05-21T02:07:28.663Z,10.78
2019-05-21T02:09:59.016Z,10.73
2019-05-21T02:12:29.315Z,10.74
2019-05-21T02:14:59.738Z,10.75
2019-05-21T02:17:30.131Z,10.71
2019-05-21T02:20:00.458Z,10.78
2019-05-21T02:22:31.880Z,10.79
2019-05-21T02:25:02.234Z,10.81
2019-05-21T02:27:32.600Z,10.80
2019-05-21T02:30:06.905Z,10.78
2019-05-21T02:32:38.092Z,10.80
2019-05-21T02:35:08.365Z,10.84
2019-05-21T02:37:38.736Z,10.88
2019-05-21T02:40:10.482Z,10.88
2019-05-21T02:42:40.807Z,10.83
2019-05-21T02:45:11.630Z,10.85
2019-05-21T02:47:41.856Z,10.89
2019-05-21T02:50:12.661Z,10.84
2019-05-21T02:52:42.916Z,10.84
2019-05-21T02:55:13.474Z,10.86
2019-05-21T02:57:43.774Z,10.84
2019-05-21T03:00:31.505Z,10.81
2019-05-21T03:03:02.017Z,10.81
2019-05-21T03:05:32.266Z,10.77
2019-05-21T03:08:02.553Z,10.84
2019-05-21T03:10:33.840Z,10.77
2019-05-21T03:13:04.198Z,10.79
2019-05-21T03:15:34.535Z,10.76
2019-05-21T03:18:04.715Z,10.81
2019-05-21T03:20:34.953Z,10.76
2019-05-21T03:23:05.248Z,10.77
2019-05-21T03:25:35.558Z,10.77
2019-05-21T03:28:05.929Z,10.82
2019-05-21T03:30:36.214Z,10.82
2019-05-21T03:33:06.516Z,10.81
2019-05-21T03:35:36.795Z,10.83
2019-05-21T03:38:07.030Z,10.86
2019-05-21T03:40:37.294Z,10.83
2019-05-21T03:43:07.561Z,10.80
2019-05-21T03:45:37.801Z,10.85
2019-05-21T03:48:08.071Z,10.80
2019-05-21T03:50:38.382Z,10.91
2019-05-21T03:53:08.662Z,10.87
2019-05-21T03:55:38.940Z,10.92
2019-05-21T03:58:10.432Z,10.85
2019-05-21T04:00:40.724Z,10.86
2019-05-21T04:03:11.005Z,10.90
2019-05-21T04:05:41.330Z,10.87
2019-05-21T04:08:11.591Z,10.88
2019-05-21T04:10:41.871Z,10.89
2019-05-21T04:13:12.220Z,10.87
2019-05-21T04:16:01.434Z,10.83
2019-05-21T04:18:43.010Z,10.86
2019-05-21T04:21:13.397Z,10.87
2019-05-21T04:23:43.698Z,10.86
2019-05-21T04:26:14.089Z,10.85
2019-05-21T04:28:44.387Z,10.86
2019-05-21T04:31:14.671Z,10.78
2019-05-21T04:33:44.960Z,10.80
2019-05-21T04:36:15.196Z,10.83
2019-05-21T04:38:45.453Z,10.86
2019-05-21T04:41:15.762Z,10.90
2019-05-21T04:43:46.098Z,10.97
2019-05-21T04:46:16.376Z,10.98
2019-05-21T04:48:46.664Z,10.98
2019-05-21T04:51:16.984Z,11.00
2019-05-21T04:53:47.375Z,10.95
2019-05-21T04:56:17.649Z,10.96
2019-05-21T04:58:48.047Z,10.96
2019-05-21T05:01:18.356Z,11.05
2019-05-21T05:03:48.677Z,11.00
2019-05-21T05:06:19.075Z,11.05
2019-05-21T05:08:51.637Z,11.06
2019-05-21T05:11:23.323Z,11.09
2019-05-21T05:13:53.766Z,11.10
2019-05-21T05:16:24.125Z,11.07
2019-05-21T05:18:54.456Z,11.13
2019-05-21T05:21:27.436Z,11.07
2019-05-21T05:23:57.760Z,11.04
2019-05-21T05:26:28.100Z,11.13
2019-05-21T05:28:58.434Z,11.12
2019-05-21T05:31:28.796Z,11.12
2019-05-21T05:33:59.209Z,11.11
2019-05-21T05:36:29.552Z,11.15
2019-05-21T05:38:59.816Z,11.12
2019-05-21T05:41:30.270Z,11.18
2019-05-21T05:44:00.576Z,11.18
2019-05-21T05:46:30.978Z,11.19
2019-05-21T05:49:06.958Z,11.27
2019-05-21T05:51:40.054Z,11.25
2019-05-21T05:54:10.386Z,11.27
2019-05-21T05:56:40.745Z,11.31
2019-05-21T05:59:14.241Z,11.31
2019-05-21T06:01:43.199Z,11.32
2019-05-21T06:04:13.458Z,11.23
2019-05-21T06:06:43.774Z,11.27
2019-05-21T06:09:14.181Z,11.34
2019-05-21T06:11:44.532Z,11.36
2019-05-21T06:14:15.043Z,11.36
2019-05-21T06:16:45.401Z,11.35
2019-05-21T06:19:15.744Z,11.38
2019-05-21T06:21:46.076Z,11.31
2019-05-21T06:24:17.928Z,11.34
2019-05-21T06:26:48.086Z,11.29
2019-05-21T06:29:18.311Z,11.25
2019-05-21T06:31:49.597Z,11.27
2019-05-21T06:34:19.789Z,11.27
2019-05-21T06:36:50.024Z,11.27
2019-05-21T06:39:20.244Z,11.34
2019-05-21T06:41:50.530Z,11.23
2019-05-21T06:44:22.246Z,11.32
2019-05-21T06:46:52.521Z,11.32
2019-05-21T06:49:22.785Z,11.29
2019-05-21T06:51:52.932Z,11.33
2019-05-21T06:54:23.192Z,11.30
2019-05-21T06:56:53.381Z,11.25
2019-05-21T06:59:23.527Z,11.40
2019-05-21T07:01:53.730Z,11.35
2019-05-21T07:04:23.924Z,11.43
2019-05-21T07:06:54.422Z,11.41
2019-05-21T07:09:24.621Z,11.48
2019-05-21T07:11:54.791Z,11.50
2019-05-21T07:14:25.004Z,11.53
2019-05-21T07:16:56.221Z,11.57
2019-05-21T07:19:26.492Z,11.53
2019-05-21T07:22:11.428Z,11.60
2019-05-21T07:24:28.941Z,11.64
2019-05-21T07:26:59.177Z,11.60
2019-05-21T07:29:29.283Z,11.66
2019-05-21T07:31:59.503Z,11.63
2019-05-21T07:34:30.324Z,11.63
2019-05-21T07:37:00.465Z,11.73
2019-05-21T07:39:31.669Z,11.76
2019-05-21T07:42:01.838Z,11.84
2019-05-21T07:44:33.068Z,11.73
2019-05-21T07:47:03.271Z,11.77
2019-05-21T07:49:33.550Z,11.75
2019-05-21T07:52:03.767Z,11.73
2019-05-21T07:54:34.039Z,11.77
2019-05-21T07:57:04.239Z,11.82
2019-05-21T07:59:34.477Z,11.82
2019-05-21T08:02:05.819Z,11.86
2019-05-21T08:04:36.027Z,11.88
2019-05-21T08:07:06.420Z,11.80
2019-05-21T08:09:36.588Z,11.78
2019-05-21T08:12:34.498Z,11.80
2019-05-21T08:14:38.761Z,11.79
2019-05-21T08:17:09.093Z,11.83
2019-05-21T08:19:39.442Z,11.80
2019-05-21T08:22:09.628Z,11.91
2019-05-21T08:24:39.812Z,11.90
2019-05-21T08:27:10.182Z,11.89
2019-05-21T08:29:40.632Z,11.84
2019-05-21T08:32:10.814Z,11.68
2019-05-21T08:34:41.037Z,11.66
2019-05-21T08:37:11.278Z,11.69
2019-05-21T08:39:41.426Z,11.82
2019-05-21T08:42:11.719Z,11.79
2019-05-21T08:44:42.268Z,11.69
2019-05-21T08:47:12.450Z,11.70
2019-05-21T08:49:44.258Z,11.86
2019-05-21T08:52:14.618Z,11.72
2019-05-21T08:54:49.044Z,11.64
2019-05-21T08:57:19.778Z,11.79
2019-05-21T08:59:49.986Z,11.74
2019-05-21T09:02:20.143Z,11.77
2019-05-21T09:04:50.385Z,11.83
2019-05-21T09:07:21.017Z,11.86
2019-05-21T09:09:52.147Z,11.88
2019-05-21T09:12:22.602Z,11.95
2019-05-21T09:14:52.817Z,11.88
2019-05-21T09:17:22.960Z,11.76
2019-05-21T09:19:53.210Z,11.86
2019-05-21T09:22:23.457Z,11.73
2019-05-21T09:24:53.645Z,11.83
2019-05-21T09:27:23.932Z,11.79
2019-05-21T09:29:54.150Z,11.83
2019-05-21T09:32:24.487Z,11.89
2019-05-21T09:34:54.795Z,12.02
2019-05-21T09:37:24.974Z,12.00
2019-05-21T09:39:55.223Z,12.06
2019-05-21T09:42:25.371Z,12.12
2019-05-21T09:44:55.503Z,12.21
2019-05-21T09:47:25.612Z,12.16
2019-05-21T09:49:55.780Z,12.08
2019-05-21T09:52:27.573Z,12.19
2019-05-21T09:54:57.772Z,12.23
2019-05-21T09:57:34.528Z,12.28
2019-05-21T10:00:13.423Z,12.35
2019-05-21T10:02:43.619Z,12.19
2019-05-21T10:05:13.750Z,12.28
2019-05-21T10:07:43.984Z,12.22
2019-05-21T10:10:15.227Z,12.28
2019-05-21T10:12:45.374Z,12.49
2019-05-21T10:15:15.460Z,12.43
2019-05-21T10:17:45.764Z,12.61
2019-05-21T10:20:15.839Z,12.42
2019-05-21T10:22:46.039Z,12.40
2019-05-21T10:25:16.258Z,12.37
2019-05-21T10:27:46.609Z,12.41
2019-05-21T10:30:18.482Z,12.57
2019-05-21T10:32:48.672Z,12.55
2019-05-21T10:35:18.834Z,12.45
2019-05-21T10:37:54.873Z,12.53
2019-05-21T10:40:23.394Z,12.59
2019-05-21T10:42:53.524Z,12.67
2019-05-21T10:45:25.537Z,12.43
2019-05-21T10:47:55.746Z,12.58
2019-05-21T10:50:25.941Z,12.63
2019-05-21T10:52:56.141Z,12.64
2019-05-21T10:55:27.136Z,12.67
2019-05-21T10:57:57.377Z,12.43
2019-05-21T11:00:28.350Z,12.55
2019-05-21T11:03:06.709Z,12.50
2019-05-21T11:05:39.124Z,12.55
2019-05-21T11:08:25.537Z,12.51
2019-05-21T11:10:41.338Z,12.47
2019-05-21T11:13:11.509Z,12.22
2019-05-21T11:15:41.663Z,12.42
2019-05-21T11:18:12.276Z,12.44
2019-05-21T11:20:42.637Z,12.40
2019-05-21T11:23:12.852Z,12.52
2019-05-21T11:25:43.074Z,12.38
2019-05-21T11:28:13.272Z,12.48
2019-05-21T11:30:44.521Z,12.40
2019-05-21T11:33:14.840Z,12.46
2019-05-21T11:35:45.244Z,12.27
2019-05-21T11:38:15.445Z,12.52
2019-05-21T11:40:50.776Z,12.35
2019-05-21T11:43:17.489Z,12.36
2019-05-21T11:45:47.645Z,12.41
2019-05-21T11:48:17.786Z,12.37
2019-05-21T11:50:49.568Z,12.34
2019-05-21T11:53:19.774Z,12.50
2019-05-21T11:55:49.956Z,12.58
2019-05-21T11:58:21.287Z,12.73
2019-05-21T12:00:51.465Z,12.62
2019-05-21T12:03:21.738Z,12.60
2019-05-21T12:05:52.086Z,12.51
2019-05-21T12:08:22.301Z,12.68
2019-05-21T12:10:52.464Z,12.49
2019-05-21T12:13:22.802Z,12.57
2019-05-21T12:15:53.100Z,12.75
2019-05-21T12:18:26.161Z,12.84
2019-05-21T12:20:56.480Z,12.64
2019-05-21T12:23:29.579Z,12.52
2019-05-21T12:26:07.768Z,12.41
2019-05-21T12:28:37.985Z,12.60
2019-05-21T12:31:08.381Z,12.38
2019-05-21T12:33:41.881Z,12.35
2019-05-21T12:36:12.049Z,12.40
2019-05-21T12:38:42.459Z,12.50
2019-05-21T12:41:13.879Z,12.46
2019-05-21T12:43:44.291Z,12.56
2019-05-21T12:46:14.546Z,12.44
2019-05-21T12:48:45.921Z,12.32
2019-05-21T12:51:16.227Z,12.36
2019-05-21T12:53:46.504Z,12.20
2019-05-21T12:56:16.766Z,12.24
2019-05-21T12:58:47.103Z,12.33
2019-05-21T13:01:17.767Z,12.26
2019-05-21T13:03:47.944Z,12.23
2019-05-21T13:06:18.194Z,12.35
2019-05-21T13:08:48.394Z,12.33
2019-05-21T13:11:18.641Z,12.53
2019-05-21T13:13:48.857Z,12.45
2019-05-21T13:16:19.736Z,12.48
2019-05-21T13:18:49.977Z,12.39
2019-05-21T13:21:20.259Z,12.38
2019-05-21T13:23:54.297Z,12.29
2019-05-21T13:26:24.553Z,12.28
2019-05-21T13:28:54.798Z,12.34
2019-05-21T13:31:28.326Z,12.35
2019-05-21T13:33:58.578Z,12.34
2019-05-21T13:36:28.798Z,12.31
2019-05-21T13:38:59.234Z,12.45
2019-05-21T13:41:29.470Z,12.50
2019-05-21T13:44:03.987Z,12.36
2019-05-21T13:46:35.705Z,12.36
2019-05-21T13:49:07.810Z,12.35
2019-05-21T13:51:39.128Z,12.44
2019-05-21T13:54:09.446Z,12.40
2019-05-21T13:56:40.625Z,12.30
2019-05-21T13:59:10.901Z,12.27
2019-05-21T14:01:41.803Z,12.35
2019-05-21T14:04:12.299Z,12.40
2019-05-21T14:06:42.543Z,12.22
2019-05-21T14:09:12.828Z,12.15
2019-05-21T14:11:43.090Z,12.21
2019-05-21T14:14:13.404Z,12.21
2019-05-21T14:16:44.314Z,12.24
2019-05-21T14:19:14.944Z,12.21
2019-05-21T14:21:45.211Z,12.12
2019-05-21T14:24:15.515Z,12.17
2019-05-21T14:26:45.786Z,12.37
2019-05-21T14:29:16.015Z,12.40
2019-05-21T14:31:46.224Z,12.24
2019-05-21T14:34:16.476Z,12.26
2019-05-21T14:36:47.793Z,12.24
2019-05-21T14:39:18.312Z,12.18
2019-05-21T14:41:48.482Z,12.28
2019-05-21T14:44:20.285Z,12.19
2019-05-21T14:46:50.487Z,12.07
2019-05-21T14:49:20.684Z,12.04
2019-05-21T14:51:50.853Z,12.04
2019-05-21T14:54:26.734Z,12.03
2019-05-21T14:56:53.214Z,11.97
2019-05-21T14:59:23.476Z,11.94
2019-05-21T15:01:53.779Z,11.97
2019-05-21T15:04:24.365Z,11.87
2019-05-21T15:06:54.790Z,11.91
2019-05-21T15:09:25.027Z,11.80
2019-05-21T15:11:55.278Z,11.79
2019-05-21T15:14:25.558Z,11.83
2019-05-21T15:16:55.925Z,11.86
2019-05-21T15:19:26.025Z,11.79
2019-05-21T15:21:56.238Z,11.83
2019-05-21T15:24:26.455Z,11.77
2019-05-21T15:26:57.721Z,11.81
2019-05-21T15:29:27.913Z,11.79
2019-05-21T15:31:58.109Z,11.82
2019-05-21T15:34:28.268Z,11.87
2019-05-21T15:36:59.549Z,11.80
2019-05-21T15:39:29.727Z,11.88
2019-05-21T15:41:59.870Z,11.73
2019-05-21T15:44:29.999Z,11.75
2019-05-21T15:47:01.717Z,11.79
2019-05-21T15:49:36.219Z,11.80
2019-05-21T15:52:03.801Z,11.72
2019-05-21T15:54:33.962Z,11.75
2019-05-21T15:57:04.320Z,11.74
2019-05-21T15:59:34.660Z,11.83
2019-05-21T16:02:05.065Z,11.80
2019-05-21T16:04:37.646Z,11.82
2019-05-21T16:07:07.994Z,11.69
2019-05-21T16:09:38.206Z,11.78
2019-05-21T16:12:09.412Z,11.73
2019-05-21T16:14:39.575Z,11.69
2019-05-21T16:17:09.747Z,11.76
2019-05-21T16:19:40.040Z,11.68
2019-05-21T16:22:11.820Z,11.78
2019-05-21T16:24:41.971Z,11.78
2019-05-21T16:27:12.268Z,11.74
2019-05-21T16:29:44.165Z,11.77
2019-05-21T16:32:14.468Z,11.76
2019-05-21T16:34:44.832Z,11.67
2019-05-21T16:37:15.132Z,11.60
2019-05-21T16:39:45.340Z,11.67
2019-05-21T16:42:15.593Z,11.63
2019-05-21T16:44:45.835Z,11.61
2019-05-21T16:47:15.999Z,11.69
2019-05-21T16:49:46.875Z,11.67
2019-05-21T16:52:18.059Z,11.68
2019-05-21T16:54:48.231Z,11.67
2019-05-21T16:57:18.426Z,11.69
2019-05-21T16:59:50.239Z,11.70
2019-05-21T17:02:20.353Z,11.76
2019-05-21T17:04:50.557Z,11.64
2019-05-21T17:07:20.817Z,11.63
2019-05-21T17:09:50.994Z,11.68
2019-05-21T17:12:21.166Z,11.68
2019-05-21T17:14:51.337Z,11.63
2019-05-21T17:17:21.553Z,11.65
2019-05-21T17:19:51.785Z,11.68
2019-05-21T17:22:22.024Z,11.73
2019-05-21T17:24:52.293Z,11.63
2019-05-21T17:27:22.559Z,11.74
2019-05-21T17:29:53.225Z,11.64
2019-05-21T17:32:24.019Z,11.65
2019-05-21T17:34:54.518Z,11.66
2019-05-21T17:37:26.249Z,11.61
2019-05-21T17:39:56.811Z,11.64
2019-05-21T17:42:27.154Z,11.68
2019-05-21T17:45:00.642Z,11.58
2019-05-21T17:47:31.743Z,11.52
2019-05-21T17:50:03.799Z,11.47
2019-05-21T17:52:35.547Z,11.41
2019-05-21T17:55:06.061Z,11.32
2019-05-21T17:57:36.432Z,11.35
2019-05-21T18:00:08.528Z,11.31
2019-05-21T18:02:39.451Z,11.32
2019-05-21T18:05:12.067Z,11.34
2019-05-21T18:07:45.297Z,11.38
2019-05-21T18:10:20.079Z,11.33
2019-05-21T18:12:50.825Z,11.29
2019-05-21T18:15:21.217Z,11.37
2019-05-21T18:17:51.716Z,11.32
2019-05-21T18:20:25.481Z,11.23
2019-05-21T18:22:55.781Z,11.25
2019-05-21T18:25:28.730Z,11.27
2019-05-21T18:27:59.020Z,11.31
2019-05-21T18:30:30.898Z,11.17
2019-05-21T18:33:01.535Z,11.17
2019-05-21T18:35:33.430Z,11.18
2019-05-21T18:38:04.680Z,11.20
2019-05-21T18:40:37.090Z,11.15
2019-05-21T18:43:07.454Z,11.12
2019-05-21T18:45:37.721Z,11.15
2019-05-21T18:48:07.827Z,11.21
2019-05-21T18:50:38.109Z,11.22
2019-05-21T18:53:09.558Z,11.18
2019-05-21T18:55:41.345Z,11.14
2019-05-21T18:58:16.445Z,11.19
2019-05-21T19:00:49.492Z,11.15
2019-05-21T19:03:31.061Z,11.15
2019-05-21T19:06:07.229Z,11.19
2019-05-21T19:08:39.277Z,11.11
2019-05-21T19:11:17.249Z,11.09
2019-05-21T19:13:49.754Z,11.09
2019-05-21T19:16:24.558Z,11.04
2019-05-21T19:18:58.570Z,10.96
2019-05-21T19:21:33.948Z,11.01
2019-05-21T19:24:17.186Z,10.98
2019-05-21T19:26:51.833Z,10.97
2019-05-21T19:29:29.172Z,10.98
2019-05-21T19:32:04.622Z,11.05
2019-05-21T19:34:36.839Z,10.99
2019-05-21T19:37:07.617Z,10.95
2019-05-21T19:39:40.814Z,11.03
2019-05-21T19:42:11.755Z,10.99
2019-05-21T19:44:54.616Z,11.01
2019-05-21T19:47:35.943Z,10.97
2019-05-21T19:50:08.230Z,10.96
2019-05-21T19:52:39.681Z,10.99
2019-05-21T19:55:12.329Z,10.95
2019-05-21T19:57:47.614Z,10.96
2019-05-21T20:00:24.737Z,10.98
2019-05-21T20:02:58.711Z,11.03
2019-05-21T20:05:40.387Z,10.95
2019-05-21T20:08:13.853Z,10.98
2019-05-21T20:10:45.080Z,10.98
2019-05-21T20:13:30.450Z,10.96
2019-05-21T20:15:55.251Z,10.97
2019-05-21T20:18:27.473Z,10.90
2019-05-21T20:21:00.025Z,10.93
2019-05-21T20:23:33.212Z,10.93
2019-05-21T20:26:05.655Z,10.95
2019-05-21T20:28:38.047Z,10.98
2019-05-21T20:31:26.753Z,10.96
2019-05-21T20:34:00.965Z,10.97
2019-05-21T20:36:43.811Z,10.97
2019-05-21T20:39:19.686Z,11.02
2019-05-21T20:42:01.269Z,10.98
2019-05-21T20:44:28.335Z,11.00
2019-05-21T20:46:59.155Z,11.03
2019-05-21T20:49:32.685Z,10.93
2019-05-21T20:52:17.719Z,10.98
2019-05-21T20:54:41.121Z,10.97
2019-05-21T20:57:15.522Z,10.96
2019-05-21T20:59:46.322Z,10.94
2019-05-21T21:02:23.129Z,10.93
2019-05-21T21:04:55.339Z,10.90
2019-05-21T21:07:27.377Z,10.91
2019-05-21T21:10:00.453Z,10.91
2019-05-21T21:12:37.572Z,10.88
2019-05-21T21:15:09.965Z,10.93
2019-05-21T21:17:46.917Z,10.95
2019-05-21T21:20:22.567Z,10.92
2019-05-21T21:22:58.097Z,10.92
2019-05-21T21:25:30.330Z,10.91
2019-05-21T21:28:01.275Z,10.84
2019-05-21T21:30:36.611Z,10.84
2019-05-21T21:33:12.386Z,10.87
2019-05-21T21:35:43.520Z,10.86
2019-05-21T21:38:17.301Z,10.82
2019-05-21T21:40:47.736Z,10.85
2019-05-21T21:43:21.113Z,10.83
2019-05-21T21:45:51.551Z,10.84
2019-05-21T21:48:26.534Z,10.87
2019-05-21T21:50:57.541Z,10.78
2019-05-21T21:53:27.795Z,10.83
2019-05-21T21:55:59.008Z,10.82
2019-05-21T21:58:29.461Z,10.77
2019-05-21T22:01:33.239Z,10.76
2019-05-21T22:04:06.027Z,10.80
2019-05-21T22:06:39.392Z,10.77
2019-05-21T22:09:42.560Z,10.77
2019-05-21T22:12:17.511Z,10.68
2019-05-21T22:14:52.476Z,10.67
2019-05-21T22:17:22.714Z,10.64
2019-05-21T22:19:53.263Z,10.54
2019-05-21T22:22:23.495Z,10.50
2019-05-21T22:24:58.769Z,10.48
2019-05-21T22:27:28.614Z,10.49
2019-05-21T22:29:58.769Z,10.46
2019-05-21T22:32:28.955Z,10.50
2019-05-21T22:35:00.055Z,10.49
2019-05-21T22:37:30.814Z,10.48
2019-05-21T22:40:01.077Z,10.49
2019-05-21T22:42:32.054Z,10.48
2019-05-21T22:45:08.410Z,10.43
2019-05-21T22:47:34.117Z,10.48
2019-05-21T22:50:04.412Z,10.51
2019-05-21T22:52:34.548Z,10.52
2019-05-21T22:55:04.935Z,10.47
2019-05-21T22:57:35.041Z,10.46
2019-05-21T23:00:06.621Z,10.42
2019-05-21T23:02:38.140Z,10.58
2019-05-21T23:05:08.608Z,10.54
2019-05-21T23:07:40.474Z,10.48
2019-05-21T23:10:10.965Z,10.47
2019-05-21T23:12:41.238Z,10.45
2019-05-21T23:15:24.301Z,10.44
2019-05-21T23:17:45.079Z,10.47
2019-05-21T23:20:23.965Z,10.41
2019-05-21T23:22:56.851Z,10.38
2019-05-21T23:25:27.413Z,10.42
2019-05-21T23:27:57.650Z,10.38
2019-05-21T23:30:28.084Z,10.44
2019-05-21T23:32:58.474Z,10.39
2019-05-21T23:35:28.813Z,10.42
2019-05-21T23:38:01.258Z,10.39
2019-05-21T23:40:31.770Z,10.40
2019-05-21T23:43:02.034Z,10.41
2019-05-21T23:45:34.761Z,10.43
2019-05-21T23:48:06.496Z,10.41
2019-05-21T23:50:36.846Z,10.33
2019-05-21T23:53:07.909Z,10.39
2019-05-21T23:55:39.298Z,10.41
2019-05-21T23:58:10.131Z,10.41
